createdAt,value
2018-05-31T00:01:08.164Z,92315.47
2018-05-31T00:03:34.592Z,92315.11
2018-05-31T00:06:00.950Z,92311.85
2018-05-31T00:08:27.269Z,92313.28
2018-05-31T00:10:53.597Z,92308.94
2018-05-31T00:13:20.121Z,92305.54
2018-05-31T00:15:46.465Z,92306.73
2018-05-31T00:18:12.800Z,92303.64
2018-05-31T00:20:39.173Z,92305.31
2018-05-31T00:23:05.493Z,92299.92
2018-05-31T00:25:31.825Z,92298.08
2018-05-31T00:27:58.186Z,92289.45
2018-05-31T00:30:24.508Z,92296.82
2018-05-31T00:32:50.823Z,92292.11
2018-05-31T00:35:17.319Z,92294.31
2018-05-31T00:37:43.635Z,92297.61
2018-05-31T00:40:09.959Z,92295.94
2018-05-31T00:42:36.296Z,92296.30
2018-05-31T00:45:02.672Z,92294.05
2018-05-31T00:47:28.981Z,92291.15
2018-05-31T00:49:55.307Z,92296.06
2018-05-31T00:52:21.645Z,92298.78
2018-05-31T00:54:47.964Z,92286.79
2018-05-31T00:57:14.376Z,92287.08
2018-05-31T00:59:40.694Z,92289.52
2018-05-31T01:02:07.008Z,92293.30
2018-05-31T01:04:33.369Z,92289.90
2018-05-31T01:06:59.700Z,92291.42
2018-05-31T01:09:26.002Z,92294.31
2018-05-31T01:11:52.382Z,92296.42
2018-05-31T01:14:18.789Z,92287.73
2018-05-31T01:16:45.092Z,92290.61
2018-05-31T01:19:11.666Z,92297.02
2018-05-31T01:21:37.976Z,92296.34
2018-05-31T01:24:04.293Z,92288.52
2018-05-31T01:26:30.652Z,92290.58
2018-05-31T01:28:56.957Z,92292.12
2018-05-31T01:31:23.258Z,92282.72
2018-05-31T01:33:49.606Z,92289.16
2018-05-31T01:36:15.925Z,92281.72
2018-05-31T01:38:42.234Z,92282.91
2018-05-31T01:41:08.732Z,92275.45
2018-05-31T01:43:35.056Z,92277.45
2018-05-31T01:46:01.363Z,92275.14
2018-05-31T01:48:27.724Z,92277.97
2018-05-31T01:50:54.038Z,92275.44
2018-05-31T01:53:20.346Z,92273.23
2018-05-31T01:55:46.683Z,92276.75
2018-05-31T01:58:13.019Z,92273.80
2018-05-31T02:00:39.350Z,92277.03
2018-05-31T02:03:05.775Z,92279.08
2018-05-31T02:05:32.116Z,92277.60
2018-05-31T02:07:58.417Z,92277.49
2018-05-31T02:10:24.776Z,92278.25
2018-05-31T02:12:51.112Z,92277.20
2018-05-31T02:15:17.520Z,92282.39
2018-05-31T02:17:43.869Z,92276.78
2018-05-31T02:20:10.161Z,92276.05
2018-05-31T02:22:36.456Z,92277.11
2018-05-31T02:25:02.968Z,92280.32
2018-05-31T02:27:34.929Z,92279.69
2018-05-31T02:30:01.233Z,92280.37
2018-05-31T02:32:27.575Z,92279.19
2018-05-31T02:34:53.869Z,92280.02
2018-05-31T02:37:20.186Z,92283.38
2018-05-31T02:39:46.524Z,92284.89
2018-05-31T02:42:12.819Z,92287.13
2018-05-31T02:44:39.115Z,92289.58
2018-05-31T02:47:05.594Z,92291.23
2018-05-31T02:49:31.895Z,92294.83
2018-05-31T02:51:58.195Z,92294.88
2018-05-31T02:54:24.525Z,92298.25
2018-05-31T02:56:50.827Z,92302.66
2018-05-31T02:59:17.122Z,92300.47
2018-05-31T03:01:43.469Z,92302.60
2018-05-31T03:04:09.775Z,92301.19
2018-05-31T03:06:36.088Z,92305.82
2018-05-31T03:09:03.644Z,92307.80
2018-05-31T03:11:30.028Z,92309.48
2018-05-31T03:13:56.353Z,92313.11
2018-05-31T03:16:22.833Z,92314.86
2018-05-31T03:18:49.153Z,92311.78
2018-05-31T03:21:15.440Z,92316.83
2018-05-31T03:23:41.915Z,92315.80
2018-05-31T03:26:08.219Z,92318.73
2018-05-31T03:28:34.526Z,92317.68
2018-05-31T03:31:00.920Z,92318.78
2018-05-31T03:33:27.216Z,92323.27
2018-05-31T03:35:53.524Z,92326.16
2018-05-31T03:38:19.862Z,92328.74
2018-05-31T03:40:46.180Z,92327.51
2018-05-31T03:43:12.495Z,92332.96
2018-05-31T03:45:38.831Z,92332.27
2018-05-31T03:48:05.156Z,92330.74
2018-05-31T03:50:31.454Z,92341.95
2018-05-31T03:52:59.560Z,92332.73
2018-05-31T03:55:25.868Z,92341.59
2018-05-31T03:57:52.168Z,92339.27
2018-05-31T04:00:18.512Z,92345.53
2018-05-31T04:02:44.849Z,92344.05
2018-05-31T04:05:11.157Z,92348.39
2018-05-31T04:07:37.484Z,92340.13
2018-05-31T04:10:03.804Z,92347.52
2018-05-31T04:12:30.109Z,92342.73
2018-05-31T04:14:57.750Z,92342.38
2018-05-31T04:17:24.670Z,92345.53
2018-05-31T04:19:51.006Z,92341.81
2018-05-31T04:22:17.907Z,92349.73
2018-05-31T04:24:44.910Z,92342.69
2018-05-31T04:27:12.117Z,92341.67
2018-05-31T04:29:38.570Z,92344.56
2018-05-31T04:32:04.913Z,92340.17
2018-05-31T04:34:31.224Z,92343.77
2018-05-31T04:36:57.683Z,92341.94
2018-05-31T04:39:23.980Z,92346.41
2018-05-31T04:41:50.306Z,92351.92
2018-05-31T04:44:16.676Z,92352.48
2018-05-31T04:46:42.980Z,92345.35
2018-05-31T04:49:09.292Z,92345.84
2018-05-31T04:51:35.636Z,92345.33
2018-05-31T04:54:01.950Z,92343.67
2018-05-31T04:56:28.263Z,92342.41
2018-05-31T04:58:54.671Z,92336.09
2018-05-31T05:01:21.215Z,92340.77
2018-05-31T05:03:49.526Z,92333.33
2018-05-31T05:06:19.379Z,92337.69
2018-05-31T05:08:45.717Z,92334.52
2018-05-31T05:11:12.047Z,92341.17
2018-05-31T05:13:38.417Z,92352.41
2018-05-31T05:16:04.811Z,92344.56
2018-05-31T05:18:33.489Z,92351.48
2018-05-31T05:20:59.894Z,92349.02
2018-05-31T05:23:26.204Z,92347.74
2018-05-31T05:25:52.535Z,92342.50
2018-05-31T05:28:18.900Z,92343.80
2018-05-31T05:30:45.210Z,92340.82
2018-05-31T05:33:11.551Z,92343.63
2018-05-31T05:35:37.904Z,92337.98
2018-05-31T05:38:04.244Z,92345.18
2018-05-31T05:40:30.551Z,92341.94
2018-05-31T05:42:56.988Z,92341.67
2018-05-31T05:45:23.283Z,92341.19
2018-05-31T05:47:49.591Z,92335.83
2018-05-31T05:50:15.982Z,92337.11
2018-05-31T05:52:42.292Z,92335.80
2018-05-31T05:55:08.594Z,92332.89
2018-05-31T05:57:34.950Z,92331.69
2018-05-31T06:00:01.262Z,92333.78
2018-05-31T06:02:28.391Z,92334.55
2018-05-31T06:04:54.795Z,92328.48
2018-05-31T06:07:21.110Z,92331.74
2018-05-31T06:09:47.433Z,92334.99
2018-05-31T06:12:13.809Z,92331.46
2018-05-31T06:14:40.148Z,92335.17
2018-05-31T06:17:06.480Z,92331.30
2018-05-31T06:19:32.971Z,92326.03
2018-05-31T06:21:59.303Z,92330.55
2018-05-31T06:24:25.596Z,92330.24
2018-05-31T06:26:52.011Z,92327.18
2018-05-31T06:29:18.331Z,92327.78
2018-05-31T06:31:44.656Z,92320.98
2018-05-31T06:34:10.993Z,92328.27
2018-05-31T06:36:37.303Z,92329.73
2018-05-31T06:39:03.661Z,92329.20
2018-05-31T06:41:30.021Z,92324.23
2018-05-31T06:43:56.308Z,92320.81
2018-05-31T06:46:22.641Z,92323.03
2018-05-31T06:48:49.043Z,92320.53
2018-05-31T06:51:15.353Z,92312.73
2018-05-31T06:53:41.647Z,92318.37
2018-05-31T06:56:07.998Z,92318.66
2018-05-31T06:58:34.324Z,92320.95
2018-05-31T07:01:00.669Z,92319.98
2018-05-31T07:03:27.016Z,92320.80
2018-05-31T07:05:53.313Z,92318.75
2018-05-31T07:08:19.643Z,92319.33
2018-05-31T07:10:46.161Z,92313.69
2018-05-31T07:13:12.529Z,92319.41
2018-05-31T07:15:38.821Z,92318.45
2018-05-31T07:18:05.160Z,92319.44
2018-05-31T07:20:33.192Z,92318.66
2018-05-31T07:22:59.497Z,92312.98
2018-05-31T07:25:25.861Z,92319.02
2018-05-31T07:27:52.167Z,92315.41
2018-05-31T07:30:18.482Z,92316.70
2018-05-31T07:32:44.891Z,92314.89
2018-05-31T07:35:11.374Z,92317.52
2018-05-31T07:37:37.661Z,92307.84
2018-05-31T07:40:04.000Z,92312.97
2018-05-31T07:42:30.308Z,92305.70
2018-05-31T07:44:56.602Z,92311.32
2018-05-31T07:47:23.055Z,92311.22
2018-05-31T07:49:49.359Z,92306.23
2018-05-31T07:52:15.662Z,92304.84
2018-05-31T07:54:43.655Z,92307.11
2018-05-31T07:57:09.962Z,92301.79
2018-05-31T07:59:36.258Z,92299.12
2018-05-31T08:02:02.643Z,92302.20
2018-05-31T08:04:28.938Z,92300.18
2018-05-31T08:06:55.239Z,92303.33
2018-05-31T08:09:21.560Z,92296.34
2018-05-31T08:11:47.858Z,92296.50
2018-05-31T08:14:14.161Z,92294.75
2018-05-31T08:16:40.634Z,92292.22
2018-05-31T08:19:06.933Z,92293.70
2018-05-31T08:21:33.337Z,92289.95
2018-05-31T08:23:59.712Z,92287.32
2018-05-31T08:26:26.016Z,92283.67
2018-05-31T08:28:52.320Z,92284.22
2018-05-31T08:31:18.668Z,92287.03
2018-05-31T08:33:44.978Z,92285.96
2018-05-31T08:36:11.273Z,92276.41
2018-05-31T08:38:37.692Z,92278.59
2018-05-31T08:41:04.029Z,92280.01
2018-05-31T08:43:32.151Z,92279.09
2018-05-31T08:45:58.472Z,92282.08
2018-05-31T08:48:24.771Z,92273.64
2018-05-31T08:50:51.063Z,92271.61
2018-05-31T08:53:17.389Z,92266.75
2018-05-31T08:55:43.693Z,92265.06
2018-05-31T08:58:09.988Z,92267.89
2018-05-31T09:00:36.380Z,92266.13
2018-05-31T09:03:02.674Z,92270.13
2018-05-31T09:05:28.965Z,92265.55
2018-05-31T09:07:55.325Z,92262.38
2018-05-31T09:10:21.612Z,92261.73
2018-05-31T09:12:47.913Z,92256.94
2018-05-31T09:15:14.303Z,92249.70
2018-05-31T09:17:40.575Z,92256.42
2018-05-31T09:20:06.877Z,92255.29
2018-05-31T09:22:33.375Z,92253.22
2018-05-31T09:24:59.683Z,92248.83
2018-05-31T09:27:25.978Z,92251.14
2018-05-31T09:29:52.309Z,92252.56
2018-05-31T09:32:18.622Z,92243.70
2018-05-31T09:34:44.911Z,92238.70
2018-05-31T09:37:11.238Z,92236.44
2018-05-31T09:39:37.528Z,92243.22
2018-05-31T09:42:03.869Z,92233.94
2018-05-31T09:44:30.261Z,92233.02
2018-05-31T09:46:56.560Z,92230.75
2018-05-31T09:49:22.845Z,92220.64
2018-05-31T09:51:49.196Z,92221.05
2018-05-31T09:54:15.487Z,92224.72
2018-05-31T09:56:41.780Z,92218.84
2018-05-31T09:59:08.115Z,92216.44
2018-05-31T10:01:34.396Z,92217.23
2018-05-31T10:04:00.691Z,92210.22
2018-05-31T10:06:27.135Z,92220.45
2018-05-31T10:08:53.440Z,92213.74
2018-05-31T10:11:19.743Z,92208.27
2018-05-31T10:13:46.089Z,92207.55
2018-05-31T10:16:12.514Z,92203.50
2018-05-31T10:18:38.809Z,92202.73
2018-05-31T10:21:05.184Z,92205.14
2018-05-31T10:23:31.604Z,92201.34
2018-05-31T10:25:57.910Z,92204.25
2018-05-31T10:28:24.292Z,92194.75
2018-05-31T10:30:50.597Z,92189.43
2018-05-31T10:33:16.906Z,92191.94
2018-05-31T10:35:43.225Z,92188.41
2018-05-31T10:38:09.529Z,92183.64
2018-05-31T10:40:35.825Z,92185.20
2018-05-31T10:43:02.174Z,92184.90
2018-05-31T10:45:28.472Z,92185.88
2018-05-31T10:47:54.804Z,92180.66
2018-05-31T10:50:21.219Z,92176.48
2018-05-31T10:52:47.517Z,92170.55
2018-05-31T10:55:13.835Z,92174.99
2018-05-31T10:57:40.222Z,92182.85
2018-05-31T11:00:06.561Z,92168.48
2018-05-31T11:02:32.913Z,92166.28
2018-05-31T11:04:59.340Z,92166.35
2018-05-31T11:07:25.682Z,92165.64
2018-05-31T11:09:51.985Z,92158.09
2018-05-31T11:12:18.461Z,92158.27
2018-05-31T11:14:44.830Z,92158.03
2018-05-31T11:17:11.128Z,92157.69
2018-05-31T11:19:37.482Z,92156.99
2018-05-31T11:22:03.814Z,92148.88
2018-05-31T11:24:30.229Z,92147.85
2018-05-31T11:26:56.563Z,92145.05
2018-05-31T11:29:22.873Z,92143.91
2018-05-31T11:31:49.169Z,92155.55
2018-05-31T11:34:15.574Z,92148.35
2018-05-31T11:36:41.867Z,92141.94
2018-05-31T11:39:08.165Z,92139.64
2018-05-31T11:41:34.572Z,92135.69
2018-05-31T11:44:00.845Z,92139.62
2018-05-31T11:46:27.177Z,92127.11
2018-05-31T11:48:53.512Z,92128.19
2018-05-31T11:51:19.850Z,92124.67
2018-05-31T11:53:46.320Z,92119.08
2018-05-31T11:56:13.681Z,92125.06
2018-05-31T11:58:39.999Z,92122.23
2018-05-31T12:01:06.335Z,92116.02
2018-05-31T12:03:32.681Z,92111.53
2018-05-31T12:05:58.976Z,92107.65
2018-05-31T12:08:25.339Z,92104.30
2018-05-31T12:10:51.739Z,92095.56
2018-05-31T12:13:22.993Z,92106.58
2018-05-31T12:15:49.304Z,92095.09
2018-05-31T12:18:15.731Z,92098.54
2018-05-31T12:20:42.052Z,92095.21
2018-05-31T12:23:08.386Z,92095.23
2018-05-31T12:25:34.879Z,92096.61
2018-05-31T12:28:01.196Z,92102.17
2018-05-31T12:30:27.480Z,92098.34
2018-05-31T12:32:53.816Z,92087.59
2018-05-31T12:35:20.120Z,92091.39
2018-05-31T12:37:46.462Z,92087.84
2018-05-31T12:40:12.862Z,92075.48
2018-05-31T12:42:39.166Z,92084.94
2018-05-31T12:45:05.472Z,92074.00
2018-05-31T12:47:31.857Z,92075.64
2018-05-31T12:49:58.169Z,92073.63
2018-05-31T12:52:24.489Z,92073.24
2018-05-31T12:54:50.840Z,92069.45
2018-05-31T12:57:17.148Z,92061.00
2018-05-31T12:59:43.457Z,92065.09
2018-05-31T13:02:09.888Z,92063.30
2018-05-31T13:04:36.175Z,92059.25
2018-05-31T13:07:02.486Z,92054.44
2018-05-31T13:09:34.211Z,92052.80
2018-05-31T13:12:00.512Z,92052.75
2018-05-31T13:14:26.835Z,92048.21
2018-05-31T13:16:53.180Z,92053.59
2018-05-31T13:19:19.502Z,92039.50
2018-05-31T13:21:45.804Z,92046.20
2018-05-31T13:24:12.322Z,92042.45
2018-05-31T13:26:38.718Z,92039.46
2018-05-31T13:29:05.047Z,92036.02
2018-05-31T13:31:31.393Z,92027.72
2018-05-31T13:33:57.696Z,92026.54
2018-05-31T13:36:24.000Z,92026.73
2018-05-31T13:38:50.332Z,92027.28
2018-05-31T13:41:17.319Z,92028.15
2018-05-31T13:43:43.629Z,92032.89
2018-05-31T13:46:10.111Z,92030.81
2018-05-31T13:48:36.462Z,92028.31
2018-05-31T13:51:02.761Z,92026.19
2018-05-31T13:53:29.100Z,92032.44
2018-05-31T13:55:55.424Z,92025.67
2018-05-31T13:58:21.778Z,92028.63
2018-05-31T14:00:48.111Z,92022.42
2018-05-31T14:03:14.415Z,92027.43
2018-05-31T14:05:40.725Z,92021.64
2018-05-31T14:08:07.158Z,92018.17
2018-05-31T14:10:33.462Z,92022.05
2018-05-31T14:12:59.792Z,92018.52
2018-05-31T14:15:26.127Z,92015.96
2018-05-31T14:17:52.421Z,92009.88
2018-05-31T14:20:18.695Z,92016.71
2018-05-31T14:22:45.029Z,92008.45
2018-05-31T14:25:11.354Z,92006.56
2018-05-31T14:27:41.872Z,92005.94
2018-05-31T14:30:08.792Z,92002.48
2018-05-31T14:32:35.133Z,92000.01
2018-05-31T14:35:01.433Z,91994.88
2018-05-31T14:37:27.789Z,91997.98
2018-05-31T14:39:54.173Z,92002.03
2018-05-31T14:42:20.455Z,91991.19
2018-05-31T14:44:46.790Z,91992.77
2018-05-31T14:47:13.124Z,91990.62
2018-05-31T14:49:39.427Z,91992.86
2018-05-31T14:52:05.866Z,91986.72
2018-05-31T14:54:32.166Z,91984.02
2018-05-31T14:56:58.487Z,91984.68
2018-05-31T14:59:24.839Z,91990.10
2018-05-31T15:01:51.249Z,91979.75
2018-05-31T15:04:18.660Z,91976.91
2018-05-31T15:06:45.052Z,91983.96
2018-05-31T15:09:11.465Z,91980.02
2018-05-31T15:11:37.805Z,91985.92
2018-05-31T15:14:04.290Z,91985.97
2018-05-31T15:16:30.835Z,91982.28
2018-05-31T15:18:57.183Z,91983.37
2018-05-31T15:21:23.567Z,91981.52
2018-05-31T15:23:49.914Z,91984.05
2018-05-31T15:26:16.270Z,91976.26
2018-05-31T15:28:45.240Z,91979.41
2018-05-31T15:31:11.578Z,91977.13
2018-05-31T15:33:37.916Z,91968.34
2018-05-31T15:36:04.400Z,91971.67
2018-05-31T15:38:30.759Z,91977.45
2018-05-31T15:40:57.112Z,91975.93
2018-05-31T15:43:23.503Z,91977.88
2018-05-31T15:45:49.867Z,91971.09
2018-05-31T15:48:16.225Z,91971.83
2018-05-31T15:50:42.619Z,91975.63
2018-05-31T15:53:08.978Z,91973.73
2018-05-31T15:55:35.316Z,91983.33
2018-05-31T15:58:01.856Z,91988.52
2018-05-31T16:00:28.203Z,91995.48
2018-05-31T16:02:54.560Z,91992.69
2018-05-31T16:05:20.961Z,91996.78
2018-05-31T16:07:47.314Z,91991.16
2018-05-31T16:10:13.686Z,91995.17
2018-05-31T16:12:40.075Z,91990.22
2018-05-31T16:15:06.436Z,91996.81
2018-05-31T16:17:32.767Z,91996.36
2018-05-31T16:19:59.241Z,91994.77
2018-05-31T16:22:25.642Z,91996.02
2018-05-31T16:24:51.983Z,92003.98
2018-05-31T16:27:18.354Z,92002.58
2018-05-31T16:29:44.848Z,92003.04
2018-05-31T16:32:11.187Z,92008.86
2018-05-31T16:34:37.562Z,92012.50
2018-05-31T16:37:03.912Z,92012.47
2018-05-31T16:39:30.258Z,92018.03
2018-05-31T16:41:56.712Z,92017.30
2018-05-31T16:44:23.057Z,92025.41
2018-05-31T16:46:49.414Z,92026.80
2018-05-31T16:49:15.804Z,92023.97
2018-05-31T16:51:42.194Z,92025.67
2018-05-31T16:54:08.598Z,92031.40
2018-05-31T16:56:34.979Z,92037.67
2018-05-31T16:59:01.364Z,92044.23
2018-05-31T17:01:27.717Z,92042.83
2018-05-31T17:03:54.247Z,92041.53
2018-05-31T17:06:20.601Z,92045.23
2018-05-31T17:08:46.945Z,92053.79
2018-05-31T17:11:13.316Z,92058.81
2018-05-31T17:13:39.655Z,92060.16
2018-05-31T17:16:06.015Z,92056.45
2018-05-31T17:18:32.424Z,92055.34
2018-05-31T17:20:58.776Z,92056.12
2018-05-31T17:23:25.126Z,92057.73
2018-05-31T17:25:58.238Z,92064.84
2018-05-31T17:28:24.587Z,92063.30
2018-05-31T17:30:51.026Z,92062.75
2018-05-31T17:33:17.425Z,92064.53
2018-05-31T17:35:43.786Z,92065.31
2018-05-31T17:38:10.181Z,92065.55
2018-05-31T17:40:36.617Z,92070.32
2018-05-31T17:43:03.005Z,92076.25
2018-05-31T17:45:29.344Z,92081.16
2018-05-31T17:47:55.872Z,92082.14
2018-05-31T17:50:22.224Z,92084.14
2018-05-31T17:52:48.625Z,92089.82
2018-05-31T17:55:15.733Z,92090.80
2018-05-31T17:57:42.107Z,92096.10
2018-05-31T18:00:08.496Z,92104.00
2018-05-31T18:02:35.063Z,92111.02
2018-05-31T18:05:01.429Z,92106.04
2018-05-31T18:07:27.804Z,92112.05
2018-05-31T18:09:54.239Z,92119.88
2018-05-31T18:12:20.619Z,92121.69
2018-05-31T18:14:46.975Z,92133.70
2018-05-31T18:17:13.352Z,92129.70
2018-05-31T18:19:39.689Z,92141.97
2018-05-31T18:22:06.041Z,92143.61
2018-05-31T18:24:32.476Z,92143.14
2018-05-31T18:26:58.861Z,92150.41
2018-05-31T18:29:25.212Z,92151.67
2018-05-31T18:31:51.837Z,92151.59
2018-05-31T18:34:18.204Z,92159.66
2018-05-31T18:36:44.552Z,92157.69
2018-05-31T18:39:10.946Z,92165.37
2018-05-31T18:41:37.390Z,92163.63
2018-05-31T18:44:03.790Z,92167.03
2018-05-31T18:46:30.648Z,92172.32
2018-05-31T18:48:57.211Z,92173.13
2018-05-31T18:51:23.596Z,92177.50
2018-05-31T18:53:50.120Z,92175.47
2018-05-31T18:56:16.689Z,92179.75
2018-05-31T18:58:43.057Z,92187.43
2018-05-31T19:01:09.913Z,92189.44
2018-05-31T19:03:36.453Z,92195.85
2018-05-31T19:06:03.011Z,92195.06
2018-05-31T19:08:29.401Z,92202.67
2018-05-31T19:10:55.818Z,92206.81
2018-05-31T19:13:28.288Z,92211.27
2018-05-31T19:15:55.355Z,92217.72
2018-05-31T19:18:27.889Z,92220.69
2018-05-31T19:20:54.306Z,92219.10
2018-05-31T19:23:20.704Z,92225.97
2018-05-31T19:25:47.072Z,92222.09
2018-05-31T19:28:13.476Z,92225.01
2018-05-31T19:33:40.659Z,92239.97
2018-05-31T19:36:13.143Z,92237.96
2018-05-31T19:38:39.601Z,92242.14
2018-05-31T19:41:05.960Z,92243.72
2018-05-31T19:43:38.289Z,92240.11
2018-05-31T19:46:04.677Z,92241.86
2018-05-31T19:48:31.045Z,92244.16
2018-05-31T19:50:57.612Z,92245.28
2018-05-31T19:53:30.129Z,92240.50
2018-05-31T19:55:57.139Z,92243.92
2018-05-31T19:58:29.664Z,92241.10
2018-05-31T20:01:02.103Z,92248.51
2018-05-31T20:03:32.575Z,92251.31
2018-05-31T20:05:58.946Z,92244.09
2018-05-31T20:08:25.304Z,92259.70
2018-05-31T20:10:51.770Z,92256.58
2018-05-31T20:13:18.129Z,92253.91
2018-05-31T20:15:44.516Z,92259.55
2018-05-31T20:18:10.912Z,92261.33
2018-05-31T20:20:37.267Z,92259.02
2018-05-31T20:23:03.708Z,92263.34
2018-05-31T20:25:30.087Z,92263.23
2018-05-31T20:27:56.434Z,92272.34
2018-05-31T20:30:22.802Z,92276.31
2018-05-31T20:32:49.384Z,92275.84
2018-05-31T20:35:15.862Z,92276.82
2018-05-31T20:37:42.249Z,92274.23
2018-05-31T20:40:08.633Z,92278.30
2018-05-31T20:42:34.991Z,92279.58
2018-05-31T20:45:01.349Z,92278.31
2018-05-31T20:47:27.768Z,92287.72
2018-05-31T20:49:54.117Z,92288.42
2018-05-31T20:52:21.483Z,92288.19
2018-05-31T20:54:48.098Z,92288.49
2018-05-31T20:57:14.459Z,92296.25
2018-05-31T20:59:40.820Z,92299.49
2018-05-31T21:02:07.303Z,92294.28
2018-05-31T21:04:33.651Z,92303.86
2018-05-31T21:07:01.940Z,92294.73
2018-05-31T21:09:35.274Z,92302.92
2018-05-31T21:12:02.130Z,92304.01
2018-05-31T21:14:28.482Z,92306.58
2018-05-31T21:16:55.487Z,92307.11
2018-05-31T21:19:21.849Z,92304.05
2018-05-31T21:21:48.192Z,92309.66
2018-05-31T21:24:14.579Z,92312.38
2018-05-31T21:26:40.929Z,92309.39
2018-05-31T21:29:07.286Z,92311.09
2018-05-31T21:31:33.700Z,92315.02
2018-05-31T21:34:00.067Z,92312.31
2018-05-31T21:36:29.469Z,92318.09
2018-05-31T21:38:55.893Z,92313.87
2018-05-31T21:41:22.228Z,92316.13
2018-05-31T21:43:48.561Z,92321.47
2018-05-31T21:46:14.926Z,92321.98
2018-05-31T21:48:41.288Z,92316.19
2018-05-31T21:51:07.652Z,92320.06
2018-05-31T21:53:34.055Z,92317.46
2018-05-31T21:56:00.402Z,92312.06
2018-05-31T21:58:26.755Z,92310.30
2018-05-31T22:00:55.082Z,92309.87
2018-05-31T22:03:21.432Z,92313.88
2018-05-31T22:05:47.784Z,92312.37
2018-05-31T22:08:14.187Z,92311.16
2018-05-31T22:10:40.544Z,92312.43
2018-05-31T22:13:06.920Z,92307.98
2018-05-31T22:15:33.308Z,92308.68
2018-05-31T22:17:59.643Z,92308.16
2018-05-31T22:20:25.967Z,92308.97
2018-05-31T22:22:52.405Z,92311.53
2018-05-31T22:25:18.753Z,92309.26
2018-05-31T22:27:45.108Z,92301.89
2018-05-31T22:30:11.497Z,92299.44
2018-05-31T22:32:37.860Z,92297.16
2018-05-31T22:35:04.217Z,92301.56
2018-05-31T22:37:30.772Z,92301.28
2018-05-31T22:39:57.120Z,92305.34
2018-05-31T22:42:23.470Z,92304.17
2018-05-31T22:44:49.925Z,92301.24
2018-05-31T22:47:16.256Z,92293.78
2018-05-31T22:49:42.590Z,92295.16
2018-05-31T22:52:08.957Z,92293.00
2018-05-31T22:54:35.306Z,92297.81
2018-05-31T22:57:01.642Z,92292.28
2018-05-31T22:59:28.009Z,92291.02
2018-05-31T23:01:54.356Z,92295.05
2018-05-31T23:04:20.701Z,92287.75
2018-05-31T23:06:47.128Z,92282.93
2018-05-31T23:09:13.475Z,92294.83
2018-05-31T23:11:39.819Z,92290.02
2018-05-31T23:14:06.189Z,92285.31
2018-05-31T23:16:32.553Z,92286.73
2018-05-31T23:18:58.956Z,92288.36
2018-05-31T23:21:25.351Z,92285.47
2018-05-31T23:23:51.699Z,92282.44
2018-05-31T23:26:18.055Z,92283.75
2018-05-31T23:28:44.488Z,92277.97
2018-05-31T23:31:10.819Z,92278.75
2018-05-31T23:33:37.157Z,92281.78
2018-05-31T23:36:03.558Z,92274.99
2018-05-31T23:38:30.789Z,92275.71
2018-05-31T23:40:57.121Z,92279.20
2018-05-31T23:43:23.505Z,92279.54
2018-05-31T23:45:49.844Z,92276.00
2018-05-31T23:48:16.172Z,92277.85
2018-05-31T23:50:48.070Z,92275.33
2018-05-31T23:53:16.780Z,92282.12
2018-05-31T23:55:43.207Z,92281.88
2018-05-31T23:58:09.585Z,92284.80
